Time;durP1;ratioP1;P1;durP2;ratioP2;P2;SDS_P1;SDS_P2;PMS_P1;PMS_P2;Temp;Humidity;BMP_temperature;BMP_pressure;BME280_temperature;BME280_humidity;BME280_pressure;Samples;Min_cycle;Max_cycle;Signal;HPM_P1;HPM_P2
2023/09/11 00:00:50;;;;;;;5.70;3.57;;;;;;;;;;7306271;19;140668;-75
2023/09/11 00:03:18;;;;;;;7.18;3.85;;;;;;;;;;7305946;19;140570;-76
2023/09/11 00:05:45;;;;;;;5.07;3.80;;;;;;;;;;7304739;19;141030;-75
2023/09/11 00:08:29;;;;;;;3.97;3.55;;;;;;;;;;7304314;19;142675;-75
2023/09/11 00:10:58;;;;;;;3.70;3.35;;;;;;;;;;7305723;19;141038;-78
2023/09/11 00:13:25;;;;;;;4.30;3.28;;;;;;;;;;7305581;19;140448;-74
2023/09/11 00:15:53;;;;;;;3.53;3.22;;;;;;;;;;7305215;19;140705;-75
2023/09/11 00:18:20;;;;;;;5.00;3.60;;;;;;;;;;7304274;19;142705;-76
2023/09/11 00:20:47;;;;;;;3.95;3.55;;;;;;;;;;7305683;19;140609;-75
2023/09/11 00:23:14;;;;;;;3.75;3.15;;;;;;;;;;7304498;19;140665;-75
2023/09/11 00:25:41;;;;;;;4.22;3.42;;;;;;;;;;7305252;19;141667;-75
2023/09/11 00:28:08;;;;;;;4.70;3.47;;;;;;;;;;7301431;19;141846;-76
2023/09/11 00:30:38;;;;;;;5.40;3.60;;;;;;;;;;7302021;19;142413;-75
2023/09/11 00:33:05;;;;;;;4.00;3.20;;;;;;;;;;7305208;19;140642;-75
2023/09/11 00:35:32;;;;;;;3.45;3.15;;;;;;;;;;7302594;19;140927;-75
2023/09/11 00:37:59;;;;;;;5.28;3.50;;;;;;;;;;7304111;19;141283;-75
2023/09/11 00:40:27;;;;;;;3.63;3.17;;;;;;;;;;7305091;19;140496;-74
2023/09/11 00:42:54;;;;;;;6.50;3.67;;;;;;;;;;7304203;19;140818;-75
2023/09/11 00:45:21;;;;;;;3.63;3.30;;;;;;;;;;7303859;19;142157;-75
2023/09/11 00:47:49;;;;;;;3.40;3.10;;;;;;;;;;7303270;19;142621;-75
2023/09/11 00:50:19;;;;;;;3.40;3.10;;;;;;;;;;7303507;19;140776;-75
2023/09/11 00:52:47;;;;;;;3.83;3.30;;;;;;;;;;7304798;19;140842;-75
2023/09/11 00:55:14;;;;;;;4.20;3.50;;;;;;;;;;7303479;19;141064;-75
2023/09/11 00:57:42;;;;;;;3.72;3.15;;;;;;;;;;7302878;19;143000;-76
2023/09/11 01:00:09;;;;;;;4.32;3.00;;;;;;;;;;7302804;19;140428;-75
2023/09/11 01:02:36;;;;;;;3.55;2.97;;;;;;;;;;7303981;19;141163;-75
2023/09/11 01:05:07;;;;;;;4.10;3.15;;;;;;;;;;7302783;19;141699;-75
2023/09/11 01:07:34;;;;;;;3.63;3.30;;;;;;;;;;7302347;19;142415;-74
2023/09/11 01:10:05;;;;;;;3.20;2.90;;;;;;;;;;7304313;19;141127;-74
2023/09/11 01:12:37;;;;;;;4.30;3.13;;;;;;;;;;7302207;19;140977;-76
2023/09/11 01:15:05;;;;;;;3.30;3.00;;;;;;;;;;7302666;19;141137;-76
2023/09/11 01:17:45;;;;;;;3.30;2.97;;;;;;;;;;7303683;19;142375;-76
2023/09/11 01:20:21;;;;;;;5.70;3.43;;;;;;;;;;7303786;19;140906;-74
2023/09/11 01:23:08;;;;;;;3.75;3.28;;;;;;;;;;7300321;19;140661;-76
2023/09/11 01:25:53;;;;;;;3.60;3.30;;;;;;;;;;7302987;19;141973;-76
2023/09/11 01:28:39;;;;;;;4.75;3.47;;;;;;;;;;7301832;19;142129;-76
2023/09/11 01:31:07;;;;;;;3.97;3.20;;;;;;;;;;7302765;19;140555;-75
2023/09/11 01:33:35;;;;;;;3.65;3.20;;;;;;;;;;7303042;19;140697;-76
2023/09/11 01:36:02;;;;;;;2.83;2.50;;;;;;;;;;7302904;19;140749;-76
2023/09/11 01:38:29;;;;;;;4.10;3.13;;;;;;;;;;7301811;19;141326;-76
2023/09/11 01:40:58;;;;;;;3.20;3.00;;;;;;;;;;7302861;19;140471;-77
2023/09/11 01:43:29;;;;;;;3.88;3.20;;;;;;;;;;7302726;19;140832;-76
2023/09/11 01:45:55;;;;;;;;;;;;;;;;;;7303201;19;141075;-77
2023/09/11 01:48:23;;;;;;;3.30;2.80;;;;;;;;;;7297997;19;142439;-77
2023/09/11 01:50:50;;;;;;;4.28;3.10;;;;;;;;;;7302342;19;140383;-77
2023/09/11 01:53:17;;;;;;;4.28;3.30;;;;;;;;;;7300709;19;140669;-77
2023/09/11 01:55:44;;;;;;;3.25;2.95;;;;;;;;;;7302279;19;141479;-78
2023/09/11 01:58:12;;;;;;;3.38;2.90;;;;;;;;;;7301834;19;141855;-78
2023/09/11 02:00:39;;;;;;;4.07;3.22;;;;;;;;;;7302421;19;140593;-78
2023/09/11 02:03:06;;;;;;;3.47;2.88;;;;;;;;;;7302371;19;140696;-77
2023/09/11 02:05:33;;;;;;;3.17;2.85;;;;;;;;;;7300281;19;141135;-78
2023/09/11 02:08:01;;;;;;;5.03;3.58;;;;;;;;;;7303273;19;141255;-77
2023/09/11 02:10:28;;;;;;;3.67;3.00;;;;;;;;;;7302089;19;140743;-77
2023/09/11 02:12:55;;;;;;;3.88;2.95;;;;;;;;;;7302049;19;140554;-77
2023/09/11 02:15:22;;;;;;;3.60;3.00;;;;;;;;;;7301803;19;141575;-76
2023/09/11 02:17:49;;;;;;;3.30;3.00;;;;;;;;;;7301882;19;142026;-76
2023/09/11 02:20:16;;;;;;;3.53;3.20;;;;;;;;;;7299995;19;140464;-77
2023/09/11 02:22:43;;;;;;;4.10;2.83;;;;;;;;;;7301689;19;140551;-77
2023/09/11 02:25:10;;;;;;;3.88;3.17;;;;;;;;;;7301457;19;141994;-77
2023/09/11 02:27:37;;;;;;;3.00;2.70;;;;;;;;;;7299881;19;143143;-75
2023/09/11 02:30:05;;;;;;;3.30;2.72;;;;;;;;;;7294123;19;140894;-77
2023/09/11 02:32:31;;;;;;;3.03;2.83;;;;;;;;;;7300904;19;140828;-77
2023/09/11 02:34:59;;;;;;;3.08;2.58;;;;;;;;;;7299591;19;140451;-77
2023/09/11 02:37:26;;;;;;;3.97;3.00;;;;;;;;;;7301213;19;141947;-77
2023/09/11 02:39:53;;;;;;;3.38;3.08;;;;;;;;;;7300723;19;140859;-77
2023/09/11 02:42:20;;;;;;;3.10;2.80;;;;;;;;;;7301180;19;140734;-77
2023/09/11 02:44:47;;;;;;;2.90;2.63;;;;;;;;;;7300880;19;140875;-77
2023/09/11 02:47:14;;;;;;;3.55;3.00;;;;;;;;;;7300187;19;142058;-77
2023/09/11 02:49:41;;;;;;;3.88;3.08;;;;;;;;;;7300136;19;140692;-77
2023/09/11 02:52:08;;;;;;;3.40;2.85;;;;;;;;;;7301189;19;140764;-77
2023/09/11 02:54:35;;;;;;;4.88;3.17;;;;;;;;;;7300035;19;140931;-77
2023/09/11 02:57:02;;;;;;;5.13;3.33;;;;;;;;;;7298403;19;142073;-76
2023/09/11 02:59:29;;;;;;;2.83;2.63;;;;;;;;;;7298908;19;140663;-78
2023/09/11 03:01:56;;;;;;;3.50;3.13;;;;;;;;;;7300241;19;140374;-77
2023/09/11 03:04:23;;;;;;;4.32;3.17;;;;;;;;;;7298934;19;141527;-77
2023/09/11 03:06:50;;;;;;;4.20;3.35;;;;;;;;;;7298913;19;142084;-77
2023/09/11 03:09:17;;;;;;;3.50;3.20;;;;;;;;;;7300885;19;140601;-77
2023/09/11 03:11:44;;;;;;;3.15;2.85;;;;;;;;;;7299694;19;140357;-77
2023/09/11 03:14:13;;;;;;;3.13;2.83;;;;;;;;;;7300322;19;140868;-77
2023/09/11 03:16:43;;;;;;;4.80;3.00;;;;;;;;;;7298244;19;141643;-76
2023/09/11 03:19:10;;;;;;;;;;;;;;;;;;7299289;19;140914;-76
2023/09/11 03:21:37;;;;;;;3.33;2.72;;;;;;;;;;7300101;19;140777;-76
2023/09/11 03:24:05;;;;;;;3.28;2.97;;;;;;;;;;7299900;19;141160;-76
2023/09/11 03:26:32;;;;;;;3.65;2.80;;;;;;;;;;7299562;19;143256;-76
2023/09/11 03:28:59;;;;;;;3.30;3.00;;;;;;;;;;7300157;19;140585;-77
2023/09/11 03:31:26;;;;;;;2.92;2.70;;;;;;;;;;7298476;19;140796;-77
2023/09/11 03:33:53;;;;;;;3.72;2.80;;;;;;;;;;7299423;19;140813;-77
2023/09/11 03:36:20;;;;;;;4.10;3.15;;;;;;;;;;7298044;19;140694;-76
2023/09/11 03:38:47;;;;;;;2.97;2.70;;;;;;;;;;7299623;19;140706;-76
2023/09/11 03:41:14;;;;;;;2.90;2.70;;;;;;;;;;7299273;19;140914;-76
2023/09/11 03:43:41;;;;;;;3.15;2.72;;;;;;;;;;7298562;19;141347;-77
2023/09/11 03:46:09;;;;;;;3.22;2.92;;;;;;;;;;7298783;19;142036;-77
2023/09/11 03:48:36;;;;;;;3.38;2.88;;;;;;;;;;7299439;19;140590;-77
2023/09/11 03:51:04;;;;;;;3.67;3.38;;;;;;;;;;7296590;19;141930;-77
2023/09/11 03:53:31;;;;;;;3.40;3.10;;;;;;;;;;7298774;19;141591;-76
2023/09/11 03:55:58;;;;;;;3.75;3.20;;;;;;;;;;7298589;19;142013;-76
2023/09/11 03:58:25;;;;;;;3.40;3.10;;;;;;;;;;7299689;19;140619;-76
2023/09/11 04:00:52;;;;;;;3.20;2.90;;;;;;;;;;7297770;19;140739;-76
2023/09/11 04:03:19;;;;;;;3.13;2.83;;;;;;;;;;7298408;19;141051;-78
2023/09/11 04:05:46;;;;;;;3.47;3.17;;;;;;;;;;7295292;19;141367;-78
2023/09/11 04:08:13;;;;;;;3.45;3.15;;;;;;;;;;7299096;19;140881;-77
2023/09/11 04:10:41;;;;;;;3.33;3.03;;;;;;;;;;7299185;19;140627;-78
2023/09/11 04:13:08;;;;;;;3.72;3.00;;;;;;;;;;7305695;19;142248;-80
2023/09/11 04:15:36;;;;;;;3.38;3.08;;;;;;;;;;7305228;19;142837;-78
2023/09/11 04:18:03;;;;;;;3.00;2.80;;;;;;;;;;7306122;19;140421;-81
2023/09/11 04:20:33;;;;;;;3.10;2.80;;;;;;;;;;7304245;19;140801;-82
2023/09/11 04:23:00;;;;;;;4.18;3.00;;;;;;;;;;7305731;19;140857;-81
2023/09/11 04:25:28;;;;;;;3.08;2.78;;;;;;;;;;7305115;19;142218;-82
2023/09/11 04:27:55;;;;;;;3.10;2.65;;;;;;;;;;7304898;19;140818;-83
2023/09/11 04:30:25;;;;;;;3.30;2.97;;;;;;;;;;7304361;19;140859;-77
2023/09/11 04:32:52;;;;;;;3.10;2.80;;;;;;;;;;7304002;19;141852;-77
2023/09/11 04:35:20;;;;;;;3.40;2.83;;;;;;;;;;7303716;19;141999;-74
2023/09/11 04:37:47;;;;;;;3.00;2.70;;;;;;;;;;7304943;19;140631;-76
2023/09/11 04:40:14;;;;;;;3.20;2.90;;;;;;;;;;7304425;19;140746;-76
2023/09/11 04:42:41;;;;;;;5.07;3.20;;;;;;;;;;7301820;19;141536;-83
2023/09/11 04:45:08;;;;;;;3.22;2.83;;;;;;;;;;7303881;19;141359;-75
2023/09/11 04:47:35;;;;;;;3.05;2.80;;;;;;;;;;7304746;19;140529;-75
2023/09/11 04:50:03;;;;;;;6.45;3.20;;;;;;;;;;7303779;19;140660;-76
2023/09/11 04:52:30;;;;;;;3.30;2.88;;;;;;;;;;7304086;19;141166;-76
2023/09/11 04:54:58;;;;;;;3.47;2.75;;;;;;;;;;7304264;19;143891;-77
2023/09/11 04:57:25;;;;;;;4.03;2.97;;;;;;;;;;7304221;19;140771;-75
2023/09/11 04:59:52;;;;;;;3.38;2.80;;;;;;;;;;7304466;19;140645;-77
2023/09/11 05:02:19;;;;;;;5.28;3.90;;;;;;;;;;7303725;19;140950;-77
2023/09/11 05:04:47;;;;;;;4.35;3.85;;;;;;;;;;7304315;19;141566;-77
2023/09/11 05:07:14;;;;;;;3.35;3.05;;;;;;;;;;7303709;19;140875;-77
2023/09/11 05:09:41;;;;;;;5.50;3.40;;;;;;;;;;7303819;19;140512;-77
2023/09/11 05:12:08;;;;;;;5.25;3.78;;;;;;;;;;7303388;19;141119;-78
2023/09/11 05:14:35;;;;;;;4.40;3.78;;;;;;;;;;7303538;19;142694;-77
2023/09/11 05:17:02;;;;;;;4.18;3.78;;;;;;;;;;7304165;19;140569;-77
2023/09/11 05:19:29;;;;;;;7.80;4.15;;;;;;;;;;7303257;19;140862;-77
2023/09/11 05:21:57;;;;;;;5.38;3.97;;;;;;;;;;7302215;19;141296;-77
2023/09/11 05:24:24;;;;;;;5.68;4.38;;;;;;;;;;7302850;19;142682;-77
2023/09/11 05:26:51;;;;;;;6.55;4.60;;;;;;;;;;7303689;19;140829;-77
2023/09/11 05:29:19;;;;;;;6.75;4.40;;;;;;;;;;7303515;19;140962;-77
2023/09/11 05:31:46;;;;;;;6.93;4.47;;;;;;;;;;7302758;19;141165;-77
2023/09/11 05:34:13;;;;;;;5.82;4.32;;;;;;;;;;7303560;19;141154;-77
2023/09/11 05:36:40;;;;;;;7.65;4.78;;;;;;;;;;7302702;19;140397;-77
2023/09/11 05:39:08;;;;;;;6.72;4.43;;;;;;;;;;7302913;19;140761;-77
2023/09/11 05:41:35;;;;;;;5.28;4.78;;;;;;;;;;7302698;19;140908;-77
2023/09/11 05:44:03;;;;;;;6.25;4.88;;;;;;;;;;7302329;19;142341;-77
2023/09/11 05:46:30;;;;;;;9.88;4.90;;;;;;;;;;7302829;19;140823;-76
2023/09/11 05:48:57;;;;;;;7.00;5.03;;;;;;;;;;7303151;19;140385;-77
2023/09/11 05:51:24;;;;;;;7.30;4.70;;;;;;;;;;7300567;19;141107;-77
2023/09/11 05:53:54;;;;;;;6.35;4.90;;;;;;;;;;7302294;19;142383;-76
2023/09/11 05:56:21;;;;;;;6.87;4.63;;;;;;;;;;7302431;19;140825;-77
2023/09/11 05:58:48;;;;;;;7.03;4.63;;;;;;;;;;7302078;19;140586;-76
2023/09/11 06:01:15;;;;;;;6.88;4.65;;;;;;;;;;7302084;19;141890;-76
2023/09/11 06:03:43;;;;;;;7.43;4.93;;;;;;;;;;7302170;19;141258;-77
2023/09/11 06:06:10;;;;;;;7.15;4.60;;;;;;;;;;7301227;19;140547;-75
2023/09/11 06:08:37;;;;;;;6.13;4.85;;;;;;;;;;7302452;19;140556;-75
2023/09/11 06:11:05;;;;;;;8.00;4.88;;;;;;;;;;7301872;19;140673;-75
2023/09/11 06:13:33;;;;;;;6.45;4.80;;;;;;;;;;7301007;19;141833;-75
2023/09/11 06:16:01;;;;;;;7.65;5.13;;;;;;;;;;7302051;19;140624;-75
2023/09/11 06:18:28;;;;;;;7.07;4.70;;;;;;;;;;7301995;19;140441;-76
2023/09/11 06:20:55;;;;;;;6.35;4.68;;;;;;;;;;7300324;19;141149;-76
2023/09/11 06:23:23;;;;;;;7.10;5.20;;;;;;;;;;7301320;19;143204;-76
2023/09/11 06:25:50;;;;;;;6.07;4.90;;;;;;;;;;7304835;19;140493;-76
2023/09/11 06:28:17;;;;;;;9.05;5.00;;;;;;;;;;7300939;19;140411;-76
2023/09/11 06:30:44;;;;;;;5.03;4.43;;;;;;;;;;7300646;19;140963;-76
2023/09/11 06:33:11;;;;;;;8.60;4.95;;;;;;;;;;7299771;19;141842;-76
2023/09/11 06:35:38;;;;;;;5.68;4.70;;;;;;;;;;7300407;19;140800;-76
2023/09/11 06:38:05;;;;;;;7.30;5.43;;;;;;;;;;7301381;19;140671;-76
2023/09/11 06:40:32;;;;;;;7.63;4.88;;;;;;;;;;7300145;19;141524;-75
2023/09/11 06:42:59;;;;;;;8.65;5.05;;;;;;;;;;7299892;19;141836;-75
2023/09/11 06:45:26;;;;;;;6.63;5.15;;;;;;;;;;7300857;19;140810;-75
2023/09/11 06:47:54;;;;;;;8.15;5.00;;;;;;;;;;7300267;19;140669;-75
2023/09/11 06:50:21;;;;;;;8.38;5.13;;;;;;;;;;7300453;19;142724;-77
2023/09/11 06:52:48;;;;;;;7.68;4.82;;;;;;;;;;7300178;19;142856;-76
2023/09/11 06:55:15;;;;;;;6.00;4.72;;;;;;;;;;7301007;19;140629;-77
2023/09/11 06:57:54;;;;;;;5.85;4.88;;;;;;;;;;7300395;19;140674;-77
2023/09/11 07:00:21;;;;;;;5.78;4.60;;;;;;;;;;7299975;19;141022;-77
2023/09/11 07:02:49;;;;;;;7.43;4.93;;;;;;;;;;7299632;19;142376;-77
2023/09/11 07:05:16;;;;;;;5.70;4.68;;;;;;;;;;7300442;19;140544;-77
2023/09/11 07:07:44;;;;;;;6.10;4.57;;;;;;;;;;7300603;19;140821;-77
2023/09/11 07:10:11;;;;;;;7.22;5.00;;;;;;;;;;7299800;19;141128;-77
2023/09/11 07:12:42;;;;;;;7.32;4.80;;;;;;;;;;7300207;19;141132;-77
2023/09/11 07:15:09;;;;;;;5.40;4.53;;;;;;;;;;7300457;19;140719;-77
2023/09/11 07:17:36;;;;;;;7.70;5.30;;;;;;;;;;7299498;19;140567;-76
2023/09/11 07:20:04;;;;;;;8.95;5.00;;;;;;;;;;7299795;19;140861;-75
2023/09/11 07:22:31;;;;;;;6.45;4.95;;;;;;;;;;7298415;19;142173;-76
2023/09/11 07:24:58;;;;;;;6.15;4.78;;;;;;;;;;7299715;19;140726;-76
2023/09/11 07:27:33;;;;;;;6.28;5.00;;;;;;;;;;7300051;19;140681;-76
2023/09/11 07:30:00;;;;;;;6.80;4.90;;;;;;;;;;7297762;19;141159;-76
2023/09/11 07:32:29;;;;;;;5.85;4.82;;;;;;;;;;7298969;19;142691;-76
2023/09/11 07:34:57;;;;;;;8.07;4.73;;;;;;;;;;7299493;19;140790;-76
2023/09/11 07:37:25;;;;;;;7.90;5.20;;;;;;;;;;7298769;19;140600;-77
2023/09/11 07:39:52;;;;;;;5.55;4.55;;;;;;;;;;7298706;19;141272;-77
2023/09/11 07:42:19;;;;;;;6.68;4.65;;;;;;;;;;7298957;19;142826;-76
2023/09/11 07:44:46;;;;;;;6.57;4.63;;;;;;;;;;7299163;19;140842;-76
2023/09/11 07:47:13;;;;;;;6.53;4.80;;;;;;;;;;7306596;19;140593;-76
2023/09/11 07:49:40;;;;;;;5.63;4.80;;;;;;;;;;7306694;19;141205;-77
2023/09/11 07:52:08;;;;;;;6.05;4.90;;;;;;;;;;7305275;19;142688;-77
2023/09/11 07:54:36;;;;;;;6.95;4.95;;;;;;;;;;7306342;19;140634;-77
2023/09/11 07:57:03;;;;;;;6.65;4.95;;;;;;;;;;7306696;19;140659;-77
2023/09/11 07:59:30;;;;;;;6.15;4.55;;;;;;;;;;7305370;19;141547;-77
2023/09/11 08:01:58;;;;;;;6.80;4.90;;;;;;;;;;7305762;19;142062;-77
2023/09/11 08:04:25;;;;;;;6.38;4.80;;;;;;;;;;7305487;19;140805;-77
2023/09/11 08:06:52;;;;;;;5.45;4.53;;;;;;;;;;7304284;19;140485;-77
2023/09/11 08:09:19;;;;;;;6.65;4.88;;;;;;;;;;7303720;19;141042;-77
2023/09/11 08:11:46;;;;;;;5.32;4.30;;;;;;;;;;7305370;19;141869;-77
2023/09/11 08:14:14;;;;;;;5.88;4.60;;;;;;;;;;7305694;19;140579;-76
2023/09/11 08:16:41;;;;;;;6.53;4.57;;;;;;;;;;7305629;19;140361;-76
2023/09/11 08:19:08;;;;;;;6.15;4.90;;;;;;;;;;7305143;19;140937;-77
2023/09/11 08:21:35;;;;;;;6.82;4.90;;;;;;;;;;7304022;19;141828;-76
2023/09/11 08:24:02;;;;;;;5.97;4.78;;;;;;;;;;7305166;19;140597;-76
2023/09/11 08:26:29;;;;;;;6.10;4.80;;;;;;;;;;7303476;19;140483;-77
2023/09/11 08:28:56;;;;;;;4.90;4.40;;;;;;;;;;7307354;19;140805;-77
2023/09/11 08:31:24;;;;;;;5.88;4.60;;;;;;;;;;7302776;19;142367;-76
2023/09/11 08:33:51;;;;;;;5.07;4.50;;;;;;;;;;7304923;19;140749;-76
2023/09/11 08:36:21;;;;;;;4.57;3.97;;;;;;;;;;7304615;19;140419;-77
2023/09/11 08:38:48;;;;;;;5.55;4.70;;;;;;;;;;7304554;19;141232;-76
2023/09/11 08:41:17;;;;;;;7.15;4.72;;;;;;;;;;7304008;19;142072;-77
2023/09/11 08:43:44;;;;;;;6.22;4.65;;;;;;;;;;7304626;19;140624;-79
2023/09/11 08:46:14;;;;;;;5.18;4.50;;;;;;;;;;7304247;19;140851;-77
2023/09/11 08:48:43;;;;;;;5.13;4.63;;;;;;;;;;7304755;19;141957;-79
2023/09/11 08:51:12;;;;;;;7.10;5.00;;;;;;;;;;7303958;19;141518;-78
2023/09/11 08:53:41;;;;;;;5.40;4.72;;;;;;;;;;7304169;19;140595;-75
2023/09/11 08:56:09;;;;;;;6.97;5.15;;;;;;;;;;7302524;19;140574;-77
2023/09/11 08:58:36;;;;;;;6.00;4.93;;;;;;;;;;7304147;19;141030;-74
2023/09/11 09:01:04;;;;;;;5.75;5.13;;;;;;;;;;7304180;19;142123;-76
2023/09/11 09:03:32;;;;;;;6.75;4.65;;;;;;;;;;7304413;19;140564;-77
2023/09/11 09:06:00;;;;;;;7.05;4.68;;;;;;;;;;7304196;19;140995;-78
2023/09/11 09:08:27;;;;;;;6.05;5.13;;;;;;;;;;7303178;19;142650;-77
2023/09/11 09:10:58;;;;;;;5.55;4.68;;;;;;;;;;7304394;19;141813;-76
2023/09/11 09:13:26;;;;;;;6.47;5.10;;;;;;;;;;7304119;19;140806;-77
2023/09/11 09:15:53;;;;;;;7.22;4.95;;;;;;;;;;7303854;19;140742;-76
2023/09/11 09:18:20;;;;;;;6.18;5.28;;;;;;;;;;7303578;19;141848;-77
2023/09/11 09:20:47;;;;;;;5.50;4.88;;;;;;;;;;7303473;19;142511;-77
2023/09/11 09:23:16;;;;;;;6.63;5.25;;;;;;;;;;7303003;19;140471;-76
2023/09/11 09:25:43;;;;;;;7.50;4.85;;;;;;;;;;7303328;19;140891;-78
2023/09/11 09:28:25;;;;;;;5.93;5.13;;;;;;;;;;7303335;19;140941;-76
2023/09/11 09:30:54;;;;;;;6.43;5.22;;;;;;;;;;7302608;19;141856;-76
2023/09/11 09:33:21;;;;;;;6.40;5.30;;;;;;;;;;7301596;19;140979;-76
2023/09/11 09:35:49;;;;;;;5.30;4.80;;;;;;;;;;7303477;19;140697;-77
2023/09/11 09:38:20;;;;;;;5.80;5.10;;;;;;;;;;7302151;19;140598;-76
2023/09/11 09:40:50;;;;;;;6.43;5.18;;;;;;;;;;7303086;19;140691;-75
2023/09/11 09:43:18;;;;;;;8.15;5.50;;;;;;;;;;7301180;19;140885;-76
2023/09/11 09:45:45;;;;;;;7.45;4.93;;;;;;;;;;7303484;19;140502;-76
2023/09/11 09:48:16;;;;;;;6.85;5.40;;;;;;;;;;7302725;19;140981;-74
2023/09/11 09:50:46;;;;;;;5.68;5.07;;;;;;;;;;7302418;19;142943;-76
2023/09/11 09:53:23;;;;;;;6.05;5.35;;;;;;;;;;7302118;19;140679;-76
2023/09/11 09:55:50;;;;;;;6.30;5.00;;;;;;;;;;7302849;19;140480;-78
2023/09/11 09:58:18;;;;;;;7.22;5.30;;;;;;;;;;7302110;19;141324;-76
2023/09/11 10:00:45;;;;;;;6.75;5.60;;;;;;;;;;7302726;19;141781;-76
2023/09/11 10:03:12;;;;;;;6.28;5.25;;;;;;;;;;7300598;19;140717;-76
2023/09/11 10:05:42;;;;;;;6.78;5.60;;;;;;;;;;7302127;19;140505;-78
2023/09/11 10:08:13;;;;;;;6.68;5.88;;;;;;;;;;7299380;19;141303;-76
2023/09/11 10:10:40;;;;;;;11.32;7.93;;;;;;;;;;7302268;19;141915;-77
2023/09/11 10:13:10;;;;;;;10.30;7.72;;;;;;;;;;7301902;19;141343;-78
2023/09/11 10:15:38;;;;;;;12.57;9.07;;;;;;;;;;7300726;19;140625;-77
2023/09/11 10:18:06;;;;;;;14.20;9.50;;;;;;;;;;7301466;19;141025;-78
2023/09/11 10:20:33;;;;;;;16.05;11.52;;;;;;;;;;7301498;19;142661;-77
2023/09/11 10:23:02;;;;;;;17.42;12.13;;;;;;;;;;7301701;19;140828;-78
2023/09/11 10:25:38;;;;;;;15.20;11.48;;;;;;;;;;7300276;19;140548;-78
2023/09/11 10:28:10;;;;;;;17.38;11.73;;;;;;;;;;7300263;19;142035;-78
2023/09/11 10:30:40;;;;;;;16.88;11.30;;;;;;;;;;7298770;19;141349;-84
2023/09/11 10:40:00;;;;;;;22.52;12.68;;;;;;;;;;7300292;19;140907;-85
2023/09/11 10:42:29;;;;;;;14.98;11.15;;;;;;;;;;7299651;19;142457;-81
2023/09/11 10:44:56;;;;;;;15.25;11.43;;;;;;;;;;7299990;19;142432;-79
2023/09/11 10:47:26;;;;;;;15.45;11.15;;;;;;;;;;7298697;19;140672;-81
2023/09/11 10:49:56;;;;;;;17.00;11.90;;;;;;;;;;7299874;19;140682;-80
2023/09/11 10:52:25;;;;;;;15.65;11.63;;;;;;;;;;7298273;19;142026;-79
2023/09/11 10:54:52;;;;;;;16.13;11.45;;;;;;;;;;7300579;19;140572;-80
2023/09/11 10:57:19;;;;;;;20.75;12.63;;;;;;;;;;7300083;19;140671;-81
2023/09/11 10:59:46;;;;;;;15.02;11.23;;;;;;;;;;7301029;19;141471;-82
2023/09/11 11:02:14;;;;;;;15.30;11.00;;;;;;;;;;7297395;19;141886;-82
2023/09/11 11:04:51;;;;;;;14.77;11.90;;;;;;;;;;7299517;19;142175;-82
2023/09/11 11:10:15;;;;;;;16.08;11.25;;;;;;;;;;7300561;19;141085;-82
2023/09/11 11:13:09;;;;;;;18.88;12.10;;;;;;;;;;7298398;19;145409;-83
2023/09/11 11:15:36;;;;;;;19.33;11.93;;;;;;;;;;7297952;19;140569;-77
2023/09/11 11:18:27;;;;;;;15.63;11.80;;;;;;;;;;7299595;19;140526;-81
2023/09/11 11:21:08;;;;;;;17.10;11.82;;;;;;;;;;7305637;19;140626;-78
2023/09/11 11:23:36;;;;;;;16.42;11.48;;;;;;;;;;7305160;19;142523;-79
2023/09/11 11:26:22;;;;;;;15.45;11.52;;;;;;;;;;7307321;19;140704;-84
2023/09/11 11:29:24;;;;;;;19.65;12.27;;;;;;;;;;7304927;19;140682;-84
2023/09/11 11:32:02;;;;;;;14.70;10.65;;;;;;;;;;7307344;19;141244;-83
2023/09/11 11:34:32;;;;;;;15.07;11.38;;;;;;;;;;7307191;19;140791;-79
2023/09/11 11:36:59;;;;;;;;;;;;;;;;;;7307422;19;140926;-82
2023/09/11 11:39:29;;;;;;;15.85;10.70;;;;;;;;;;7306358;19;145115;-78
2023/09/11 11:41:58;;;;;;;15.07;10.98;;;;;;;;;;7306545;19;140593;-85
2023/09/11 11:44:30;;;;;;;13.73;10.52;;;;;;;;;;7306157;19;141197;-80
2023/09/11 11:47:05;;;;;;;14.93;11.20;;;;;;;;;;7304395;19;142035;-79
2023/09/11 11:49:44;;;;;;;14.50;10.68;;;;;;;;;;7305189;19;140540;-82
2023/09/11 11:52:11;;;;;;;15.15;10.30;;;;;;;;;;7305289;19;141250;-79
2023/09/11 11:54:38;;;;;;;13.27;9.75;;;;;;;;;;7306531;19;142916;-79
2023/09/11 11:57:06;;;;;;;13.57;10.05;;;;;;;;;;7306520;19;140700;-79
2023/09/11 12:02:04;;;;;;;11.80;9.35;;;;;;;;;;7305529;19;141215;-78
2023/09/11 12:04:31;;;;;;;13.20;9.52;;;;;;;;;;7305359;19;142114;-79
2023/09/11 12:07:19;;;;;;;13.27;10.55;;;;;;;;;;7304531;19;141952;-79
2023/09/11 12:10:01;;;;;;;21.38;11.27;;;;;;;;;;7304010;19;140656;-79
2023/09/11 12:12:31;;;;;;;11.57;9.13;;;;;;;;;;7304597;19;140720;-78
2023/09/11 12:14:58;;;;;;;11.13;9.20;;;;;;;;;;7304549;19;142148;-82
2023/09/11 12:20:24;;;;;;;12.52;9.27;;;;;;;;;;7305574;19;140436;-80
2023/09/11 12:22:52;;;;;;;12.30;9.25;;;;;;;;;;7300825;19;140735;-80
2023/09/11 12:25:19;;;;;;;12.82;9.00;;;;;;;;;;7304296;19;142243;-80
2023/09/11 12:30:15;;;;;;;13.45;8.65;;;;;;;;;;7305477;19;140632;-79
2023/09/11 12:32:44;;;;;;;11.00;8.48;;;;;;;;;;7300308;19;141111;-81
2023/09/11 12:35:11;;;;;;;12.30;8.68;;;;;;;;;;7301424;19;141610;-80
2023/09/11 12:40:21;;;;;;;9.93;8.27;;;;;;;;;;7304398;19;142577;-80
2023/09/11 12:42:48;;;;;;;10.88;8.23;;;;;;;;;;7302291;19;141022;-79
2023/09/11 12:45:16;;;;;;;25.30;11.27;;;;;;;;;;7301853;19;141509;-80
2023/09/11 12:47:43;;;;;;;11.60;8.57;;;;;;;;;;7300757;19;140962;-84
2023/09/11 12:50:12;;;;;;;10.73;8.40;;;;;;;;;;7304465;19;141542;-76
2023/09/11 12:52:39;;;;;;;14.48;9.18;;;;;;;;;;7301965;19;141968;-76
2023/09/11 12:55:20;;;;;;;11.00;8.20;;;;;;;;;;7304055;19;141361;-79
2023/09/11 12:57:49;;;;;;;10.95;8.52;;;;;;;;;;7302602;19;140629;-79
2023/09/11 13:00:16;;;;;;;10.93;8.23;;;;;;;;;;7301609;19;141236;-79
2023/09/11 13:02:43;;;;;;;10.45;8.52;;;;;;;;;;7302107;19;141765;-77
2023/09/11 13:05:11;;;;;;;10.40;7.82;;;;;;;;;;7303713;19;142035;-77
2023/09/11 13:07:38;;;;;;;14.18;8.63;;;;;;;;;;7301816;19;140683;-77
2023/09/11 13:10:07;;;;;;;11.23;8.13;;;;;;;;;;7303854;19;140491;-78
2023/09/11 13:12:34;;;;;;;10.80;8.15;;;;;;;;;;7301756;19;140671;-79
2023/09/11 13:15:02;;;;;;;11.85;8.73;;;;;;;;;;7302436;19;140673;-79
2023/09/11 13:17:30;;;;;;;11.70;8.25;;;;;;;;;;7300975;19;140424;-78
2023/09/11 13:19:59;;;;;;;11.57;8.40;;;;;;;;;;7301876;19;140640;-77
2023/09/11 13:22:33;;;;;;;11.80;8.27;;;;;;;;;;7300208;19;141876;-79
2023/09/11 13:25:00;;;;;;;14.00;8.65;;;;;;;;;;7303155;19;141784;-77
2023/09/11 13:27:28;;;;;;;11.93;8.60;;;;;;;;;;7303118;19;140763;-78
2023/09/11 13:29:55;;;;;;;9.48;8.05;;;;;;;;;;7303687;19;140606;-78
2023/09/11 13:32:22;;;;;;;8.98;7.93;;;;;;;;;;7302678;19;141239;-77
2023/09/11 13:34:49;;;;;;;11.20;8.40;;;;;;;;;;7302796;19;140917;-78
2023/09/11 13:37:16;;;;;;;11.95;8.35;;;;;;;;;;7302762;19;140571;-78
2023/09/11 13:39:43;;;;;;;10.65;7.88;;;;;;;;;;7301566;19;140642;-78
2023/09/11 13:42:11;;;;;;;15.27;8.52;;;;;;;;;;7301656;19;140924;-79
2023/09/11 13:44:38;;;;;;;10.57;8.40;;;;;;;;;;7302847;19;141822;-78
2023/09/11 13:47:21;;;;;;;10.13;7.95;;;;;;;;;;7301413;19;140722;-83
2023/09/11 13:49:57;;;;;;;14.43;8.98;;;;;;;;;;7302049;19;140655;-81
2023/09/11 13:52:27;;;;;;;12.00;8.82;;;;;;;;;;7302393;19;142610;-76
2023/09/11 13:54:55;;;;;;;11.55;8.27;;;;;;;;;;7301957;19;140687;-77
2023/09/11 13:57:22;;;;;;;12.82;8.88;;;;;;;;;;7301689;19;140799;-77
2023/09/11 13:59:49;;;;;;;11.13;8.10;;;;;;;;;;7301882;19;140495;-78
2023/09/11 14:02:16;;;;;;;11.77;8.55;;;;;;;;;;7299237;19;141780;-77
2023/09/11 14:04:44;;;;;;;10.77;8.35;;;;;;;;;;7300235;19;142021;-79
2023/09/11 14:07:11;;;;;;;10.55;8.02;;;;;;;;;;7302620;19;141423;-86
2023/09/11 14:09:38;;;;;;;12.68;8.45;;;;;;;;;;7302234;19;140449;-84
2023/09/11 14:12:05;;;;;;;10.57;7.90;;;;;;;;;;7301163;19;140973;-77
2023/09/11 14:14:35;;;;;;;9.68;7.97;;;;;;;;;;7299892;19;142729;-77
2023/09/11 14:17:02;;;;;;;8.80;7.07;;;;;;;;;;7300635;19;141313;-77
2023/09/11 14:19:30;;;;;;;9.95;7.80;;;;;;;;;;7300148;19;140814;-76
2023/09/11 14:21:57;;;;;;;11.57;7.65;;;;;;;;;;7300862;19;141219;-78
2023/09/11 14:24:24;;;;;;;9.40;7.80;;;;;;;;;;7300666;19;142437;-77
2023/09/11 14:26:51;;;;;;;12.23;7.97;;;;;;;;;;7301285;19;140570;-77
2023/09/11 14:29:18;;;;;;;11.25;7.55;;;;;;;;;;7301772;19;140561;-77
2023/09/11 14:31:45;;;;;;;10.07;7.70;;;;;;;;;;7300862;19;142037;-77
2023/09/11 14:34:12;;;;;;;8.27;6.95;;;;;;;;;;7301200;19;142827;-76
2023/09/11 14:36:39;;;;;;;8.93;6.50;;;;;;;;;;7299120;19;142013;-75
2023/09/11 14:39:08;;;;;;;10.05;7.25;;;;;;;;;;7299696;19;140557;-75
2023/09/11 14:41:35;;;;;;;9.52;6.95;;;;;;;;;;7299768;19;141594;-75
2023/09/11 14:44:03;;;;;;;8.50;7.00;;;;;;;;;;7300006;19;141777;-75
2023/09/11 14:46:30;;;;;;;8.55;6.40;;;;;;;;;;7300058;19;140672;-75
2023/09/11 14:48:57;;;;;;;10.05;6.60;;;;;;;;;;7300789;19;140412;-74
2023/09/11 14:51:25;;;;;;;8.70;6.25;;;;;;;;;;7299347;19;142025;-73
2023/09/11 14:53:52;;;;;;;7.93;6.95;;;;;;;;;;7298599;19;140652;-74